Time;durP1;ratioP1;P1;durP2;ratioP2;P2;SDS_P1;SDS_P2;PMS_P1;PMS_P2;Temp;Humidity;BMP_temperature;BMP_pressure;BME280_temperature;BME280_humidity;BME280_pressure;Samples;Min_cycle;Max_cycle;Signal;HPM_P1;HPM_P2
2023/03/28 00:01:37;;;;;;;1999.90;999.90;;;5.50;99.90;;;;;;5052541;28;20032;-71
2023/03/28 00:04:03;;;;;;;1999.90;999.90;;;5.50;99.90;;;;;;5052520;28;20021;-78
2023/03/28 00:06:30;;;;;;;1999.90;999.90;;;5.50;99.90;;;;;;5052556;28;20021;-71
2023/03/28 00:08:56;;;;;;;1999.90;999.90;;;5.40;99.90;;;;;;5052400;28;20041;-71
2023/03/28 00:11:23;;;;;;;1999.90;999.90;;;5.50;99.90;;;;;;5053130;28;20484;-71
2023/03/28 00:13:59;;;;;;;1999.90;999.90;;;5.40;99.90;;;;;;5052339;28;20108;-71
2023/03/28 00:16:30;;;;;;;1999.90;999.90;;;5.40;99.90;;;;;;5052842;28;20031;-71
2023/03/28 00:18:59;;;;;;;1999.90;999.90;;;5.30;99.90;;;;;;5052621;28;20025;-78
2023/03/28 00:21:28;;;;;;;1999.90;999.90;;;5.30;99.90;;;;;;5052433;28;20033;-71
2023/03/28 00:23:56;;;;;;;1999.90;999.90;;;5.30;99.90;;;;;;5052099;28;20067;-77
2023/03/28 00:26:25;;;;;;;1999.90;999.90;;;5.20;99.90;;;;;;5052347;28;20049;-71
2023/03/28 00:28:51;;;;;;;1999.90;999.90;;;5.20;99.90;;;;;;5052637;28;20075;-79
2023/03/28 00:31:17;;;;;;;1999.90;999.90;;;5.20;99.90;;;;;;5052485;28;20029;-78
2023/03/28 00:33:46;;;;;;;1999.90;999.90;;;5.20;99.90;;;;;;5051732;28;20430;-71
2023/03/28 00:36:13;;;;;;;1999.90;999.90;;;5.10;99.90;;;;;;5052560;28;20028;-71
2023/03/28 00:38:39;;;;;;;1999.90;999.90;;;5.20;99.90;;;;;;5052128;28;20028;-71
2023/03/28 00:41:08;;;;;;;1999.90;999.90;;;5.10;99.90;;;;;;5052135;28;20017;-71
2023/03/28 00:43:41;;;;;;;1999.90;999.90;;;5.10;99.90;;;;;;5052353;28;20476;-78
2023/03/28 00:46:32;;;;;;;1999.90;999.90;;;5.00;99.90;;;;;;5052073;28;20017;-77
2023/03/28 00:49:11;;;;;;;1999.90;999.90;;;5.00;99.90;;;;;;5050763;28;20140;-78
2023/03/28 00:51:41;;;;;;;1999.90;999.90;;;5.00;99.90;;;;;;5052364;28;20119;-71
2023/03/28 00:54:11;;;;;;;1999.90;999.90;;;5.00;99.90;;;;;;5051964;28;20441;-77
2023/03/28 00:56:41;;;;;;;1999.90;999.90;;;4.90;99.90;;;;;;5052288;28;20021;-71
2023/03/28 00:59:11;;;;;;;1999.90;999.90;;;4.90;99.90;;;;;;5052406;28;20071;-78
2023/03/28 01:01:37;;;;;;;1999.90;999.90;;;4.80;99.90;;;;;;5055887;28;20490;-71
2023/03/28 01:04:04;;;;;;;1999.90;999.90;;;4.80;99.90;;;;;;5055766;28;20075;-78
2023/03/28 01:06:34;;;;;;;1999.90;999.90;;;4.80;99.90;;;;;;5055758;28;20104;-71
2023/03/28 01:09:03;;;;;;;1999.90;999.90;;;4.80;99.90;;;;;;5055839;28;20021;-78
2023/03/28 01:11:31;;;;;;;1999.90;999.90;;;4.80;99.90;;;;;;5056029;28;20021;-71
2023/03/28 01:13:59;;;;;;;1999.90;999.90;;;4.70;99.90;;;;;;5055401;28;20051;-78
2023/03/28 01:16:25;;;;;;;1999.90;999.90;;;4.60;99.90;;;;;;5054730;28;20513;-71
2023/03/28 01:18:51;;;;;;;1999.90;999.90;;;4.60;99.90;;;;;;5055672;28;20476;-71
2023/03/28 01:21:54;;;;;;;1999.90;999.90;;;4.60;99.90;;;;;;5055614;28;20092;-78
2023/03/28 01:24:44;;;;;;;1999.90;999.90;;;4.60;99.90;;;;;;5055330;28;20511;-78
2023/03/28 01:27:40;;;;;;;1999.90;999.90;;;4.60;99.90;;;;;;5055379;28;20061;-76
2023/03/28 01:30:27;;;;;;;1999.90;999.90;;;4.70;99.90;;;;;;5053490;28;20039;-71
2023/03/28 01:33:10;;;;;;;1999.90;999.90;;;4.70;99.90;;;;;;5054401;28;20028;-77
2023/03/28 01:36:03;;;;;;;1999.90;999.90;;;4.70;99.90;;;;;;5055397;28;20021;-71
2023/03/28 01:38:32;;;;;;;1999.90;999.90;;;4.70;99.90;;;;;;5055159;28;20082;-71
2023/03/28 01:41:22;;;;;;;1999.90;999.90;;;4.70;99.90;;;;;;5054721;28;20028;-78
2023/03/28 01:44:01;;;;;;;1999.90;999.90;;;4.70;99.90;;;;;;5055029;28;20373;-71
2023/03/28 01:46:30;;;;;;;1999.90;999.90;;;4.70;99.90;;;;;;5055063;28;20190;-78
2023/03/28 01:49:10;;;;;;;1999.90;999.90;;;4.70;99.90;;;;;;5054962;28;20041;-71
2023/03/28 01:52:10;;;;;;;1999.90;999.90;;;4.70;99.90;;;;;;5055269;28;20025;-78
2023/03/28 01:54:57;;;;;;;1999.90;999.90;;;4.80;99.90;;;;;;5054762;28;20025;-71
2023/03/28 01:57:44;;;;;;;1999.90;999.90;;;4.70;99.90;;;;;;5055108;28;20044;-71
2023/03/28 02:00:19;;;;;;;1999.90;999.90;;;4.70;99.90;;;;;;5054681;28;20052;-78
2023/03/28 02:02:55;;;;;;;1999.90;999.90;;;4.70;99.90;;;;;;5054867;28;20025;-78
2023/03/28 02:05:22;;;;;;;1999.90;999.90;;;4.80;99.90;;;;;;5054711;28;20029;-71
2023/03/28 02:07:50;;;;;;;1999.90;999.90;;;4.70;99.90;;;;;;5054541;28;20111;-71
2023/03/28 02:10:19;;;;;;;1999.90;999.90;;;4.70;99.90;;;;;;5054097;28;20512;-78
2023/03/28 02:12:49;;;;;;;1999.90;999.90;;;4.70;99.90;;;;;;5054859;28;20052;-71
2023/03/28 02:15:18;;;;;;;1999.90;999.90;;;4.70;99.90;;;;;;5054403;28;20044;-71
2023/03/28 02:17:50;;;;;;;1999.90;999.90;;;4.60;99.90;;;;;;5054151;28;20017;-71
2023/03/28 02:20:21;;;;;;;1999.90;999.90;;;4.60;99.90;;;;;;5054654;28;20033;-71
2023/03/28 02:23:02;;;;;;;1999.90;999.90;;;4.60;99.90;;;;;;5054256;28;20025;-78
2023/03/28 02:25:30;;;;;;;1999.90;999.90;;;4.60;99.90;;;;;;5054214;28;20128;-71
2023/03/28 02:28:01;;;;;;;1999.90;999.90;;;4.60;99.90;;;;;;5054293;28;20055;-71
2023/03/28 02:30:27;;;;;;;1999.90;999.90;;;4.60;99.90;;;;;;5054083;28;20032;-71
2023/03/28 02:33:01;;;;;;;1999.90;999.90;;;4.60;99.90;;;;;;5054406;28;20395;-71
2023/03/28 02:35:40;;;;;;;1999.90;999.90;;;4.60;99.90;;;;;;5053717;28;20071;-71
2023/03/28 02:38:20;;;;;;;1999.90;999.90;;;4.60;99.90;;;;;;5054094;28;20100;-71
2023/03/28 02:41:05;;;;;;;1999.90;999.90;;;4.60;99.90;;;;;;5053979;28;20393;-71
2023/03/28 02:43:36;;;;;;;1999.90;999.90;;;4.50;99.90;;;;;;5054012;28;20028;-71
2023/03/28 02:46:25;;;;;;;1999.90;999.90;;;4.60;99.90;;;;;;5053642;28;20031;-78
2023/03/28 02:49:09;;;;;;;1999.90;999.90;;;4.50;99.90;;;;;;5043127;28;20053;-78
2023/03/28 02:51:47;;;;;;;1999.90;999.90;;;4.60;99.90;;;;;;5053850;28;20025;-71
2023/03/28 02:54:32;;;;;;;1999.90;999.90;;;4.60;99.90;;;;;;5053487;28;20033;-71
2023/03/28 02:57:10;;;;;;;1999.90;999.90;;;4.50;99.90;;;;;;5053838;28;20107;-72
2023/03/28 02:59:42;;;;;;;1999.90;999.90;;;4.50;99.90;;;;;;5053529;28;20516;-71
2023/03/28 03:02:08;;;;;;;1999.90;999.90;;;4.50;99.90;;;;;;5053609;28;20499;-78
2023/03/28 03:04:33;;;;;;;1999.90;999.90;;;4.50;99.90;;;;;;5053651;28;20025;-71
2023/03/28 03:07:02;;;;;;;1999.90;999.90;;;4.50;99.90;;;;;;5053344;28;20028;-78
2023/03/28 03:09:27;;;;;;;1999.90;999.90;;;4.50;99.90;;;;;;5053391;28;20033;-78
2023/03/28 03:11:53;;;;;;;1999.90;999.90;;;4.50;99.90;;;;;;5053347;28;20087;-71
2023/03/28 03:14:19;;;;;;;1999.90;999.90;;;4.50;99.90;;;;;;5053221;28;20119;-71
2023/03/28 03:16:47;;;;;;;1999.90;999.90;;;4.40;99.90;;;;;;5053311;28;20476;-78
2023/03/28 03:19:13;;;;;;;1999.90;999.90;;;4.40;99.90;;;;;;5053242;28;20021;-72
2023/03/28 03:21:38;;;;;;;1999.90;999.90;;;4.40;99.90;;;;;;5052565;28;20557;-71
2023/03/28 03:24:04;;;;;;;1999.90;999.90;;;4.40;99.90;;;;;;5053285;28;20029;-71
2023/03/28 03:26:30;;;;;;;1999.90;999.90;;;4.40;99.90;;;;;;5053373;28;20021;-71
2023/03/28 03:28:56;;;;;;;1999.90;999.90;;;4.40;99.90;;;;;;5051725;28;20024;-71
2023/03/28 03:31:22;;;;;;;1999.90;999.90;;;4.40;99.90;;;;;;5053043;28;20029;-71
2023/03/28 03:33:47;;;;;;;1999.90;999.90;;;4.40;99.90;;;;;;5052787;28;20017;-78
2023/03/28 03:36:16;;;;;;;1999.90;999.90;;;4.30;99.90;;;;;;5052566;28;20029;-71
2023/03/28 03:38:41;;;;;;;1999.90;999.90;;;4.30;99.90;;;;;;5053065;28;20017;-71
2023/03/28 03:41:07;;;;;;;1999.90;999.90;;;4.30;99.90;;;;;;5052774;28;20545;-78
2023/03/28 03:43:33;;;;;;;1999.90;999.90;;;4.30;99.90;;;;;;5053223;28;20051;-78
2023/03/28 03:46:00;;;;;;;1999.90;999.90;;;4.30;99.90;;;;;;5052451;28;20029;-78
2023/03/28 03:48:25;;;;;;;1999.90;999.90;;;4.20;99.90;;;;;;5052903;28;20055;-71
2023/03/28 03:50:51;;;;;;;1999.90;999.90;;;4.30;99.90;;;;;;5052670;28;20025;-71
2023/03/28 03:53:17;;;;;;;1999.90;999.90;;;4.30;99.90;;;;;;5052951;28;20132;-78
2023/03/28 03:55:42;;;;;;;1999.90;999.90;;;4.30;99.90;;;;;;5052489;28;20031;-78
2023/03/28 03:58:08;;;;;;;1999.90;999.90;;;4.30;99.90;;;;;;5051412;28;20025;-71
2023/03/28 04:00:36;;;;;;;1999.90;999.90;;;4.30;99.90;;;;;;5052580;28;20013;-78
2023/03/28 04:03:02;;;;;;;1999.90;999.90;;;4.30;99.90;;;;;;5052607;28;20032;-71
2023/03/28 04:05:27;;;;;;;1999.90;999.90;;;4.30;99.90;;;;;;5052654;28;20025;-78
2023/03/28 04:07:53;;;;;;;1999.90;999.90;;;4.30;99.90;;;;;;5052605;28;20056;-78
2023/03/28 04:10:18;;;;;;;1999.90;999.90;;;4.20;99.90;;;;;;5052432;28;20377;-71
2023/03/28 04:12:44;;;;;;;1999.90;999.90;;;4.30;99.90;;;;;;5052897;28;20175;-71
2023/03/28 04:15:10;;;;;;;1999.90;999.90;;;4.20;99.90;;;;;;5052365;28;20025;-71
2023/03/28 04:17:36;;;;;;;1999.90;999.90;;;4.30;99.90;;;;;;5051727;28;20024;-71
2023/03/28 04:20:12;;;;;;;1999.90;999.90;;;4.30;99.90;;;;;;5051123;28;20028;-71
2023/03/28 04:22:39;;;;;;;1999.90;999.90;;;4.30;99.90;;;;;;5052292;28;20025;-71
2023/03/28 04:25:07;;;;;;;1999.90;999.90;;;4.40;99.90;;;;;;5052477;28;20052;-71
2023/03/28 04:27:33;;;;;;;1999.90;999.90;;;4.30;99.90;;;;;;5052471;28;20033;-71
2023/03/28 04:30:01;;;;;;;1999.90;999.90;;;4.40;99.90;;;;;;5052501;28;20524;-71
2023/03/28 04:32:27;;;;;;;1999.90;999.90;;;4.40;99.90;;;;;;5052637;28;20025;-71
2023/03/28 04:34:52;;;;;;;1999.90;999.90;;;4.30;99.90;;;;;;5054776;28;20507;-71
2023/03/28 04:37:18;;;;;;;1999.90;999.90;;;4.30;99.90;;;;;;5056362;28;20478;-71
2023/03/28 04:39:46;;;;;;;1999.90;999.90;;;4.30;99.90;;;;;;5056286;28;20100;-79
2023/03/28 04:42:13;;;;;;;1999.90;999.90;;;4.30;99.90;;;;;;5056131;28;20025;-79
2023/03/28 04:44:39;;;;;;;1999.90;999.90;;;4.20;99.90;;;;;;5054849;28;20033;-71
2023/03/28 04:47:07;;;;;;;1999.90;999.90;;;4.30;99.90;;;;;;5056192;28;20037;-79
2023/03/28 04:49:33;;;;;;;1999.90;999.90;;;4.30;99.90;;;;;;5055897;28;20073;-71
2023/03/28 04:51:59;;;;;;;1999.90;999.90;;;4.30;99.90;;;;;;5055869;28;20065;-79
2023/03/28 04:54:25;;;;;;;1999.90;999.90;;;4.40;99.90;;;;;;5056132;28;20492;-71
2023/03/28 04:56:52;;;;;;;1999.90;999.90;;;4.50;99.90;;;;;;5055740;28;20060;-79
2023/03/28 04:59:18;;;;;;;1999.90;999.90;;;4.60;99.90;;;;;;5054478;28;20025;-71
2023/03/28 05:01:48;;;;;;;1999.90;999.90;;;4.50;99.90;;;;;;5055097;28;20027;-79
2023/03/28 05:04:16;;;;;;;1999.90;999.90;;;4.50;99.90;;;;;;5055809;28;20013;-71
2023/03/28 05:06:45;;;;;;;1999.90;999.90;;;4.60;99.90;;;;;;5055628;28;20499;-71
2023/03/28 05:09:12;;;;;;;1999.90;999.90;;;4.60;99.90;;;;;;5055619;28;20017;-79
2023/03/28 05:11:39;;;;;;;1999.90;999.90;;;4.70;99.90;;;;;;5055336;28;20025;-71
2023/03/28 05:14:04;;;;;;;1999.90;999.90;;;4.70;99.90;;;;;;5055531;28;20025;-71
2023/03/28 05:16:30;;;;;;;1999.90;999.90;;;4.70;99.90;;;;;;5055001;28;20021;-71
2023/03/28 05:18:56;;;;;;;1999.90;999.90;;;4.70;99.90;;;;;;5055295;28;20364;-71
2023/03/28 05:21:21;;;;;;;1999.90;999.90;;;4.80;99.90;;;;;;5055141;28;20056;-71
2023/03/28 05:23:47;;;;;;;1999.90;999.90;;;4.80;99.90;;;;;;5054729;28;20071;-71
2023/03/28 05:26:13;;;;;;;1999.90;999.90;;;4.90;99.90;;;;;;5055126;28;20032;-71
2023/03/28 05:28:39;;;;;;;1999.90;999.90;;;4.80;99.90;;;;;;5055248;28;20446;-71
2023/03/28 05:31:06;;;;;;;1999.90;999.90;;;4.90;99.90;;;;;;5055049;28;20061;-71
2023/03/28 05:33:32;;;;;;;1999.90;999.90;;;4.80;99.90;;;;;;5054461;28;20045;-71
2023/03/28 05:35:59;;;;;;;1999.90;999.90;;;4.90;99.90;;;;;;5052698;28;20068;-71
2023/03/28 05:38:25;;;;;;;1999.90;999.90;;;4.90;99.90;;;;;;5054987;28;20124;-71
2023/03/28 05:40:51;;;;;;;1999.90;999.90;;;4.90;99.90;;;;;;5053933;28;20056;-71
2023/03/28 05:43:17;;;;;;;1999.90;999.90;;;4.90;99.90;;;;;;5054643;28;20032;-79
2023/03/28 05:45:43;;;;;;;1999.90;999.90;;;5.00;99.90;;;;;;5053568;28;20032;-80
2023/03/28 05:48:08;;;;;;;1999.90;999.90;;;5.00;99.90;;;;;;5039004;28;20049;-80
2023/03/28 05:50:35;;;;;;;1999.90;999.90;;;5.00;99.90;;;;;;5042945;28;20105;-79
2023/03/28 05:53:00;;;;;;;1999.90;999.90;;;5.10;99.90;;;;;;5051726;28;20055;-72
2023/03/28 05:55:26;;;;;;;1999.90;999.90;;;5.00;99.90;;;;;;5054186;28;20466;-72
2023/03/28 05:57:52;;;;;;;1999.90;999.90;;;5.00;99.90;;;;;;5054170;28;20021;-80
2023/03/28 06:00:18;;;;;;;1999.90;999.90;;;5.00;99.90;;;;;;5053801;28;20034;-80
2023/03/28 06:02:44;;;;;;;1999.90;999.90;;;5.10;99.90;;;;;;5053313;28;20025;-72
2023/03/28 06:05:12;;;;;;;1999.90;999.90;;;5.10;99.90;;;;;;5065021;28;20048;-72
2023/03/28 06:07:38;;;;;;;1999.90;999.90;;;5.10;99.90;;;;;;5052023;28;20021;-78
2023/03/28 06:10:05;;;;;;;1999.90;999.90;;;5.10;99.90;;;;;;5046204;28;20036;-79
2023/03/28 06:12:31;;;;;;;1999.90;999.90;;;5.20;99.90;;;;;;5046594;28;20384;-79
2023/03/28 06:14:57;;;;;;;1999.90;999.90;;;5.10;99.90;;;;;;5049931;28;20402;-72
2023/03/28 06:17:23;;;;;;;1999.90;999.90;;;5.10;99.90;;;;;;5047535;28;20024;-80
2023/03/28 06:19:49;;;;;;;1999.90;999.90;;;5.10;99.90;;;;;;5044931;28;20061;-79
2023/03/28 06:22:15;;;;;;;1999.90;999.90;;;5.10;99.90;;;;;;5049339;28;20082;-79
2023/03/28 06:24:40;;;;;;;1999.90;999.90;;;5.10;99.90;;;;;;5051835;28;20207;-72
2023/03/28 06:27:07;;;;;;;1999.90;999.90;;;5.10;99.90;;;;;;5051409;28;20414;-80
2023/03/28 06:29:32;;;;;;;1999.90;999.90;;;5.00;99.90;;;;;;5064183;28;20579;-72
2023/03/28 06:31:58;;;;;;;1999.90;999.90;;;5.00;99.90;;;;;;5052440;28;20116;-71
2023/03/28 06:34:24;;;;;;;1999.90;999.90;;;5.00;99.90;;;;;;5052415;28;20385;-78
2023/03/28 06:36:49;;;;;;;1999.90;999.90;;;5.00;99.90;;;;;;5051758;28;20035;-80
2023/03/28 06:39:15;;;;;;;1999.90;999.90;;;5.00;99.90;;;;;;5052117;28;20051;-71
2023/03/28 06:41:41;;;;;;;1999.90;999.90;;;5.00;99.90;;;;;;5052211;28;20539;-72
2023/03/28 06:44:06;;;;;;;1999.90;999.90;;;5.00;99.90;;;;;;5051936;28;20025;-72
2023/03/28 06:46:32;;;;;;;1999.90;999.90;;;5.00;99.90;;;;;;5048077;28;20025;-71
2023/03/28 06:48:58;;;;;;;1999.90;999.90;;;5.10;99.90;;;;;;5050815;28;20072;-79
2023/03/28 06:51:24;;;;;;;1999.90;999.90;;;5.10;99.90;;;;;;5049158;28;20049;-78
2023/03/28 06:53:49;;;;;;;1999.90;999.90;;;5.20;99.90;;;;;;5065338;28;20083;-71
2023/03/28 06:56:15;;;;;;;1999.90;999.90;;;5.30;99.90;;;;;;5037553;28;20069;-72
2023/03/28 06:58:41;;;;;;;1999.90;999.90;;;5.40;99.90;;;;;;5049241;28;20029;-78
2023/03/28 07:01:07;;;;;;;1999.90;999.90;;;5.60;99.90;;;;;;5043947;28;20374;-77
2023/03/28 07:03:32;;;;;;;1999.90;999.90;;;5.80;99.90;;;;;;5038172;28;20056;-72
2023/03/28 07:06:02;;;;;;;1999.90;999.90;;;5.90;99.90;;;;;;5053288;28;20100;-80
2023/03/28 07:08:28;;;;;;;1999.90;999.90;;;6.20;99.90;;;;;;5047533;28;20029;-72
2023/03/28 07:10:54;;;;;;;1999.90;999.90;;;6.50;99.90;;;;;;5048494;28;20488;-72
2023/03/28 07:13:21;;;;;;;1999.90;999.90;;;6.80;99.90;;;;;;5060143;28;20089;-72
2023/03/28 07:15:46;;;;;;;1999.90;999.90;;;6.80;99.90;;;;;;5049476;28;20032;-79
2023/03/28 07:18:12;;;;;;;1999.90;999.90;;;7.00;99.90;;;;;;5056341;28;20033;-71
2023/03/28 07:20:41;;;;;;;1999.90;999.90;;;6.90;99.90;;;;;;5047975;28;20029;-72
2023/03/28 07:23:06;;;;;;;1999.90;999.90;;;6.90;99.90;;;;;;5052426;28;20079;-72
2023/03/28 07:25:33;;;;;;;1999.90;999.90;;;6.80;99.90;;;;;;5050216;28;20040;-72
2023/03/28 07:27:59;;;;;;;1999.90;999.90;;;6.90;99.90;;;;;;5049106;28;20089;-79
2023/03/28 07:30:25;;;;;;;1999.90;999.90;;;6.90;99.90;;;;;;5048242;28;20128;-80
2023/03/28 07:32:51;;;;;;;1999.90;999.90;;;7.20;99.90;;;;;;5040475;28;20044;-72
2023/03/28 07:35:17;;;;;;;1999.90;999.90;;;7.30;99.90;;;;;;5046122;28;20025;-72
2023/03/28 07:37:43;;;;;;;1999.90;999.90;;;7.40;99.90;;;;;;5043181;28;20048;-78
2023/03/28 07:40:09;;;;;;;1999.90;999.90;;;7.40;99.90;;;;;;5047145;28;20754;-72
2023/03/28 07:42:35;;;;;;;1999.90;999.90;;;7.20;99.90;;;;;;5051637;28;20029;-72
2023/03/28 07:45:01;;;;;;;1999.90;999.90;;;6.90;99.90;;;;;;5068837;28;20032;-79
2023/03/28 07:47:26;;;;;;;1999.90;999.90;;;6.80;99.90;;;;;;5040657;28;20090;-72
2023/03/28 07:49:52;;;;;;;1999.90;999.90;;;6.90;99.90;;;;;;5054204;28;20059;-71
2023/03/28 07:52:19;;;;;;;1999.90;999.90;;;7.20;99.90;;;;;;5048855;28;20028;-72
2023/03/28 07:54:45;;;;;;;1999.90;999.90;;;7.40;99.90;;;;;;5049754;28;20492;-72
2023/03/28 07:57:10;;;;;;;1999.90;999.90;;;7.80;99.90;;;;;;5048333;28;20028;-72
2023/03/28 07:59:36;;;;;;;1999.90;999.90;;;8.10;99.90;;;;;;5051313;28;20047;-72
2023/03/28 08:02:02;;;;;;;1999.90;999.90;;;10.40;99.90;;;;;;5044250;28;20553;-72
2023/03/28 08:04:27;;;;;;;1999.90;999.90;;;12.50;99.90;;;;;;5046904;28;20036;-79
2023/03/28 08:06:53;;;;;;;1999.90;999.90;;;13.40;99.90;;;;;;5048745;28;20021;-80
2023/03/28 08:09:19;;;;;;;1999.90;999.90;;;14.40;99.90;;;;;;5049650;28;20036;-73
2023/03/28 08:11:46;;;;;;;1999.90;999.90;;;14.60;99.90;;;;;;5048039;28;20025;-72
2023/03/28 08:14:15;;;;;;;1999.90;999.90;;;14.40;99.90;;;;;;5060912;28;20390;-72
2023/03/28 08:16:41;;;;;;;1999.90;999.90;;;13.80;99.90;;;;;;5045530;28;20017;-80
2023/03/28 08:19:07;;;;;;;1999.90;999.90;;;14.40;99.90;;;;;;5058000;28;20063;-73
2023/03/28 08:21:34;;;;;;;1999.90;999.90;;;14.60;99.90;;;;;;5044483;28;20053;-80
2023/03/28 08:24:00;;;;;;;1999.90;999.90;;;14.90;99.90;;;;;;5047125;28;20027;-79
2023/03/28 08:26:27;;;;;;;1999.90;999.90;;;14.80;99.90;;;;;;5070325;28;20744;-73
2023/03/28 08:28:53;;;;;;;1999.90;999.90;;;15.70;99.90;;;;;;5044844;28;20395;-73
2023/03/28 08:31:22;;;;;;;1999.90;999.90;;;14.50;99.90;;;;;;5049898;28;20078;-76
2023/03/28 08:33:51;;;;;;;1999.90;999.90;;;14.80;99.90;;;;;;5051800;28;20021;-73
2023/03/28 08:36:18;;;;;;;1999.90;999.90;;;15.00;99.90;;;;;;5056723;28;20024;-73
2023/03/28 08:38:45;;;;;;;1999.90;999.90;;;13.20;99.90;;;;;;5048349;28;20446;-73
2023/03/28 08:41:21;;;;;;;1999.90;999.90;;;11.90;99.90;;;;;;5050388;28;20021;-73
2023/03/28 08:44:06;;;;;;;1999.90;999.90;;;12.20;99.90;;;;;;5044257;28;20808;-80
2023/03/28 08:46:34;;;;;;;1999.90;999.90;;;13.30;99.90;;;;;;5045976;28;20029;-73
2023/03/28 08:49:05;;;;;;;1999.90;999.90;;;13.90;99.90;;;;;;5042284;28;20094;-81
2023/03/28 08:51:39;;;;;;;1999.90;999.90;;;13.00;99.90;;;;;;5043966;28;20458;-72
2023/03/28 08:54:38;;;;;;;1999.90;999.90;;;11.50;99.90;;;;;;5054295;28;20039;-73
2023/03/28 08:57:06;;;;;;;1999.90;999.90;;;11.10;99.90;;;;;;5047221;28;20021;-79
2023/03/28 09:00:12;;;;;;;1999.90;999.90;;;11.40;99.90;;;;;;5041126;28;20384;-79
2023/03/28 09:02:38;;;;;;;1999.90;999.90;;;11.60;99.90;;;;;;5044913;28;20458;-73
2023/03/28 09:05:05;;;;;;;1999.90;999.90;;;12.00;99.90;;;;;;5049739;28;20082;-73
2023/03/28 09:07:45;;;;;;;1999.90;999.90;;;12.10;99.90;;;;;;5044558;28;20068;-72
2023/03/28 09:10:26;;;;;;;1999.90;999.90;;;12.10;99.90;;;;;;5041439;28;20029;-80
2023/03/28 09:13:06;;;;;;;1999.90;999.90;;;11.60;99.90;;;;;;5050230;28;20033;-82
2023/03/28 09:15:58;;;;;;;1999.90;999.90;;;11.20;99.90;;;;;;5055503;28;20040;-81
2023/03/28 09:18:54;;;;;;;1999.90;999.90;;;12.20;99.90;;;;;;5047747;28;20442;-72
2023/03/28 09:21:45;;;;;;;1999.90;999.90;;;11.80;99.90;;;;;;5051450;28;20033;-72
2023/03/28 09:24:29;;;;;;;1999.90;999.90;;;11.80;99.90;;;;;;5053683;28;20029;-80
2023/03/28 09:27:20;;;;;;;1999.90;999.90;;;11.70;99.90;;;;;;5053067;28;20512;-79
2023/03/28 09:29:46;;;;;;;1999.90;999.90;;;12.70;99.90;;;;;;5048687;28;20024;-72
2023/03/28 09:32:26;;;;;;;1999.90;999.90;;;12.30;99.90;;;;;;5053398;28;20025;-72
2023/03/28 09:34:52;;;;;;;1999.90;999.90;;;12.70;99.90;;;;;;5053710;28;20098;-78
2023/03/28 09:37:20;;;;;;;1999.90;999.90;;;13.20;99.90;;;;;;5053170;28;20017;-80
2023/03/28 09:39:52;;;;;;;1999.90;999.90;;;12.40;99.90;;;;;;5051075;28;20025;-77
2023/03/28 09:42:28;;;;;;;1999.90;999.90;;;12.30;99.90;;;;;;5053293;28;20037;-76
2023/03/28 09:45:29;;;;;;;1999.90;999.90;;;12.50;99.90;;;;;;5053213;28;20033;-72
2023/03/28 09:47:54;;;;;;;1999.90;999.90;;;13.20;99.90;;;;;;5045333;28;20065;-73
2023/03/28 09:50:20;;;;;;;1999.90;999.90;;;13.40;99.90;;;;;;5051367;28;20106;-79
2023/03/28 09:52:49;;;;;;;1999.90;999.90;;;13.20;99.90;;;;;;5053360;28;20029;-79
2023/03/28 09:55:21;;;;;;;1999.90;999.90;;;13.60;99.90;;;;;;5052883;28;20114;-72
2023/03/28 09:58:05;;;;;;;1999.90;999.90;;;14.00;99.90;;;;;;5050454;28;20020;-73
2023/03/28 10:00:51;;;;;;;1999.90;999.90;;;14.50;99.90;;;;;;5053905;28;20499;-81
2023/03/28 10:03:28;;;;;;;1999.90;999.90;;;14.60;99.90;;;;;;5052567;28;20408;-73
2023/03/28 10:06:15;;;;;;;1999.90;999.90;;;14.40;99.90;;;;;;5052913;28;20146;-81
2023/03/28 10:08:41;;;;;;;1999.90;999.90;;;14.10;99.90;;;;;;5051993;28;20048;-72
2023/03/28 10:11:18;;;;;;;1999.90;999.90;;;14.10;99.90;;;;;;5057191;28;20044;-71
2023/03/28 10:13:51;;;;;;;1999.90;999.90;;;13.90;99.90;;;;;;5046190;28;20036;-80
2023/03/28 10:16:32;;;;;;;1999.90;999.90;;;14.00;99.90;;;;;;5056056;28;20033;-71
2023/03/28 10:18:58;;;;;;;1999.90;999.90;;;13.50;99.90;;;;;;5044645;28;20034;-80
2023/03/28 10:21:25;;;;;;;1999.90;999.90;;;13.30;99.90;;;;;;5053101;28;20036;-71
2023/03/28 10:24:00;;;;;;;1999.90;999.90;;;13.80;99.90;;;;;;5041118;28;20033;-71
2023/03/28 10:26:27;;;;;;;1999.90;999.90;;;14.20;99.90;;;;;;5061436;28;20040;-79
2023/03/28 10:28:56;;;;;;;1999.90;999.90;;;14.60;99.90;;;;;;5072051;28;20028;-72
2023/03/28 10:31:28;;;;;;;1999.90;999.90;;;14.60;99.90;;;;;;5065876;28;20051;-80
2023/03/28 10:33:55;;;;;;;1999.90;999.90;;;14.20;99.90;;;;;;5052403;28;20029;-79
2023/03/28 10:36:42;;;;;;;1999.90;999.90;;;13.80;99.90;;;;;;5052111;28;20033;-71
2023/03/28 10:39:31;;;;;;;1999.90;999.90;;;13.30;99.90;;;;;;5049871;28;20017;-79
2023/03/28 10:42:01;;;;;;;1999.90;999.90;;;13.50;99.90;;;;;;5060254;28;20025;-78
2023/03/28 10:44:30;;;;;;;1999.90;999.90;;;13.90;99.90;;;;;;5045987;28;20083;-71
2023/03/28 10:47:00;;;;;;;1999.90;999.90;;;14.00;99.90;;;;;;5051974;28;20024;-71
2023/03/28 10:49:29;;;;;;;1999.90;999.90;;;13.90;99.90;;;;;;5044057;28;20057;-71
2023/03/28 10:51:55;;;;;;;1999.90;999.90;;;13.70;99.90;;;;;;5051723;28;20120;-72
2023/03/28 10:54:49;;;;;;;1999.90;999.90;;;13.90;99.90;;;;;;5044209;28;20527;-72
2023/03/28 10:57:35;;;;;;;1999.90;999.90;;;13.90;99.90;;;;;;5062514;28;20118;-71
2023/03/28 11:00:06;;;;;;;1999.90;999.90;;;14.10;99.90;;;;;;5038784;28;20087;-79
2023/03/28 11:02:59;;;;;;;1999.90;999.90;;;13.80;99.90;;;;;;5051690;28;20031;-71
2023/03/28 11:05:45;;;;;;;1999.90;999.90;;;13.80;99.90;;;;;;5051556;28;20056;-78
2023/03/28 11:08:54;;;;;;;1999.90;999.90;;;14.00;99.90;;;;;;5046862;28;20637;-72
2023/03/28 11:11:56;;;;;;;1999.90;999.90;;;14.30;99.90;;;;;;4991433;28;20141;-71
2023/03/28 11:14:37;;;;;;;1999.90;999.90;;;14.40;99.90;;;;;;5047890;28;20029;-71
2023/03/28 11:17:10;;;;;;;1999.90;999.90;;;14.80;99.90;;;;;;5052231;28;20417;-78
2023/03/28 11:19:41;;;;;;;1999.90;999.90;;;15.20;99.90;;;;;;5056291;28;20048;-78
2023/03/28 11:22:39;;;;;;;1999.90;999.90;;;15.30;99.90;;;;;;5046611;28;20029;-77
2023/03/28 11:25:27;;;;;;;1999.90;999.90;;;15.10;99.90;;;;;;5051335;28;20025;-71
2023/03/28 11:28:00;;;;;;;1999.90;999.90;;;15.10;99.90;;;;;;5051114;28;20036;-77
2023/03/28 11:30:30;;;;;;;;;;;15.40;99.90;;;;;;5051595;28;20495;-78
2023/03/28 11:33:02;;;;;;;1999.90;999.90;;;15.20;99.90;;;;;;5049605;28;19916;-74
2023/03/28 11:35:38;;;;;;;1999.90;999.90;;;15.00;99.90;;;;;;5049451;28;20067;-71
2023/03/28 11:38:06;;;;;;;1999.90;999.90;;;15.20;99.90;;;;;;5039381;28;20032;-79
2023/03/28 11:41:11;;;;;;;1999.90;999.90;;;15.30;99.90;;;;;;5063911;28;20036;-71
2023/03/28 11:43:50;;;;;;;1999.90;999.90;;;15.30;99.90;;;;;;5037378;28;20047;-71
2023/03/28 11:46:23;;;;;;;1999.90;999.90;;;15.40;99.90;;;;;;5051712;28;20168;-77
2023/03/28 11:49:12;;;;;;;1999.90;999.90;;;15.40;99.90;;;;;;5059319;28;20132;-79
2023/03/28 11:52:03;;;;;;;1999.90;999.90;;;15.20;99.90;;;;;;5049981;28;20028;-77
2023/03/28 11:54:29;;;;;;;1999.90;999.90;;;15.40;99.90;;;;;;5039522;28;20437;-76
2023/03/28 11:57:01;;;;;;;1999.90;999.90;;;15.70;99.90;;;;;;5057768;28;20021;-77
2023/03/28 11:59:41;;;;;;;1999.90;999.90;;;15.40;99.90;;;;;;5040271;28;20029;-76
2023/03/28 12:02:38;;;;;;;1999.90;999.90;;;15.30;99.90;;;;;;5050958;28;20414;-77
2023/03/28 12:05:19;;;;;;;1999.90;999.90;;;15.10;99.90;;;;;;5044600;28;20044;-78
2023/03/28 12:08:11;;;;;;;1999.90;999.90;;;15.50;99.90;;;;;;5042600;28;20045;-72
2023/03/28 12:10:40;;;;;;;1999.90;999.90;;;16.20;99.90;;;;;;5054628;28;20850;-78
2023/03/28 12:13:21;;;;;;;1999.90;999.90;;;16.60;99.90;;;;;;5070709;28;20028;-78
2023/03/28 12:15:57;;;;;;;1999.90;999.90;;;16.40;99.90;;;;;;5067513;28;20025;-78
2023/03/28 12:18:54;;;;;;;1999.90;999.90;;;16.30;99.90;;;;;;5063122;28;20433;-76
2023/03/28 12:21:36;;;;;;;1999.90;999.90;;;16.00;99.90;;;;;;5045069;28;20053;-78
2023/03/28 12:24:05;;;;;;;1999.90;999.90;;;16.20;99.90;;;;;;5050589;28;20103;-78
2023/03/28 12:26:59;;;;;;;1999.90;999.90;;;16.20;99.90;;;;;;5051125;28;20035;-78
2023/03/28 12:29:45;;;;;;;1999.90;999.90;;;16.60;99.90;;;;;;5050539;28;20383;-77